Oil Center, New Mexico
Current Conditions -  °F | °C
As of 5:50 PM on Friday 19 Dec 2014 (Local Time) from KHOB Reporting Station
Clear Clear  
Wind Chill: 46°   Ceiling: Unl
Heat Index: 46°   Visibility: 10mi
Dew Point: 23°   Wind: 0mph
Humidity: 40%   Direction: NA
Pressure: 30.12"   Gusts: NA
Location:  32.6132°N, 103.326°W
Report Text: KHOB 200050Z 00000KT 10SM SKC 08/M05 A3012
Loading
Personal Weather Stations






























Interactive Weather Map New forecast layout! Learn more

10-Day Weather Forecast

Advertisements
Track Severe Weather on mobile